sensor_id;sensor_type;location;lat;lon;timestamp;P1;durP1;ratioP1;P2;durP2;ratioP2
70312;SDS011;57723;51.698;5.344;2024-01-15T00:01:20;6.72;;;3.05;;
70312;SDS011;57723;51.698;5.344;2024-01-15T00:03:46;6.60;;;3.00;;
70312;SDS011;57723;51.698;5.344;2024-01-15T00:06:11;5.20;;;3.10;;
70312;SDS011;57723;51.698;5.344;2024-01-15T00:08:37;6.27;;;3.17;;
70312;SDS011;57723;51.698;5.344;2024-01-15T00:11:02;4.93;;;2.73;;
70312;SDS011;57723;51.698;5.344;2024-01-15T00:13:28;11.83;;;3.30;;
70312;SDS011;57723;51.698;5.344;2024-01-15T00:15:53;4.47;;;2.70;;
70312;SDS011;57723;51.698;5.344;2024-01-15T00:18:18;5.57;;;2.90;;
70312;SDS011;57723;51.698;5.344;2024-01-15T00:20:43;5.30;;;2.70;;
70312;SDS011;57723;51.698;5.344;2024-01-15T00:23:09;5.68;;;2.70;;
70312;SDS011;57723;51.698;5.344;2024-01-15T00:25:34;5.17;;;2.90;;
70312;SDS011;57723;51.698;5.344;2024-01-15T00:28:03;4.20;;;2.57;;
70312;SDS011;57723;51.698;5.344;2024-01-15T00:30:32;5.75;;;2.95;;
70312;SDS011;57723;51.698;5.344;2024-01-15T00:32:57;5.32;;;2.60;;
70312;SDS011;57723;51.698;5.344;2024-01-15T00:35:29;5.20;;;2.70;;
70312;SDS011;57723;51.698;5.344;2024-01-15T00:37:55;4.88;;;2.60;;
70312;SDS011;57723;51.698;5.344;2024-01-15T00:40:26;6.13;;;2.90;;
70312;SDS011;57723;51.698;5.344;2024-01-15T00:42:51;4.03;;;2.70;;
70312;SDS011;57723;51.698;5.344;2024-01-15T00:45:19;5.70;;;2.73;;
70312;SDS011;57723;51.698;5.344;2024-01-15T00:47:44;5.10;;;2.60;;
70312;SDS011;57723;51.698;5.344;2024-01-15T00:50:09;4.97;;;2.40;;
70312;SDS011;57723;51.698;5.344;2024-01-15T00:52:35;5.37;;;2.93;;
70312;SDS011;57723;51.698;5.344;2024-01-15T00:55:02;5.78;;;2.78;;
70312;SDS011;57723;51.698;5.344;2024-01-15T00:57:27;6.33;;;2.80;;
70312;SDS011;57723;51.698;5.344;2024-01-15T00:59:53;4.73;;;2.50;;
70312;SDS011;57723;51.698;5.344;2024-01-15T01:02:18;4.95;;;2.53;;
70312;SDS011;57723;51.698;5.344;2024-01-15T01:04:45;4.43;;;2.40;;
70312;SDS011;57723;51.698;5.344;2024-01-15T01:07:10;5.07;;;2.23;;
70312;SDS011;57723;51.698;5.344;2024-01-15T01:09:35;5.07;;;2.47;;
70312;SDS011;57723;51.698;5.344;2024-01-15T01:12:01;4.57;;;2.47;;
70312;SDS011;57723;51.698;5.344;2024-01-15T01:14:26;5.07;;;2.37;;
70312;SDS011;57723;51.698;5.344;2024-01-15T01:16:52;5.70;;;2.38;;
70312;SDS011;57723;51.698;5.344;2024-01-15T01:19:17;5.37;;;2.23;;
70312;SDS011;57723;51.698;5.344;2024-01-15T01:21:43;5.00;;;2.60;;
70312;SDS011;57723;51.698;5.344;2024-01-15T01:24:08;4.95;;;2.50;;
70312;SDS011;57723;51.698;5.344;2024-01-15T01:26:34;4.32;;;2.35;;
70312;SDS011;57723;51.698;5.344;2024-01-15T01:28:59;5.60;;;2.10;;
70312;SDS011;57723;51.698;5.344;2024-01-15T01:31:25;5.20;;;2.60;;
70312;SDS011;57723;51.698;5.344;2024-01-15T01:33:50;4.50;;;2.20;;
70312;SDS011;57723;51.698;5.344;2024-01-15T01:36:15;5.28;;;2.58;;
70312;SDS011;57723;51.698;5.344;2024-01-15T01:38:44;3.87;;;2.40;;
70312;SDS011;57723;51.698;5.344;2024-01-15T01:41:11;5.07;;;2.35;;
70312;SDS011;57723;51.698;5.344;2024-01-15T01:43:36;4.97;;;2.33;;
70312;SDS011;57723;51.698;5.344;2024-01-15T01:46:01;3.03;;;2.03;;
70312;SDS011;57723;51.698;5.344;2024-01-15T01:48:27;4.60;;;2.30;;
70312;SDS011;57723;51.698;5.344;2024-01-15T01:50:54;4.55;;;2.30;;
70312;SDS011;57723;51.698;5.344;2024-01-15T01:53:20;5.30;;;2.63;;
70312;SDS011;57723;51.698;5.344;2024-01-15T01:55:46;3.72;;;2.38;;
70312;SDS011;57723;51.698;5.344;2024-01-15T01:58:13;3.58;;;2.00;;
70312;SDS011;57723;51.698;5.344;2024-01-15T02:00:38;4.70;;;2.33;;
70312;SDS011;57723;51.698;5.344;2024-01-15T02:03:04;4.07;;;2.20;;
70312;SDS011;57723;51.698;5.344;2024-01-15T02:05:29;3.97;;;1.97;;
70312;SDS011;57723;51.698;5.344;2024-01-15T02:07:55;3.65;;;2.00;;
70312;SDS011;57723;51.698;5.344;2024-01-15T02:10:21;3.23;;;1.77;;
70312;SDS011;57723;51.698;5.344;2024-01-15T02:12:46;2.77;;;1.83;;
70312;SDS011;57723;51.698;5.344;2024-01-15T02:15:13;3.63;;;2.10;;
70312;SDS011;57723;51.698;5.344;2024-01-15T02:20:22;3.60;;;1.70;;
70312;SDS011;57723;51.698;5.344;2024-01-15T02:22:48;4.73;;;2.20;;
70312;SDS011;57723;51.698;5.344;2024-01-15T02:25:13;4.03;;;2.10;;
70312;SDS011;57723;51.698;5.344;2024-01-15T02:27:39;4.13;;;2.10;;
70312;SDS011;57723;51.698;5.344;2024-01-15T02:30:04;3.88;;;1.85;;
70312;SDS011;57723;51.698;5.344;2024-01-15T02:32:31;3.78;;;2.10;;
70312;SDS011;57723;51.698;5.344;2024-01-15T02:34:56;3.10;;;1.60;;
70312;SDS011;57723;51.698;5.344;2024-01-15T02:37:25;3.63;;;1.83;;
70312;SDS011;57723;51.698;5.344;2024-01-15T02:39:50;3.28;;;1.90;;
70312;SDS011;57723;51.698;5.344;2024-01-15T02:42:15;5.00;;;2.20;;
70312;SDS011;57723;51.698;5.344;2024-01-15T02:44:41;4.20;;;1.77;;
70312;SDS011;57723;51.698;5.344;2024-01-15T02:47:07;3.38;;;1.88;;
70312;SDS011;57723;51.698;5.344;2024-01-15T02:49:32;4.43;;;2.20;;
70312;SDS011;57723;51.698;5.344;2024-01-15T02:51:58;2.97;;;1.60;;
70312;SDS011;57723;51.698;5.344;2024-01-15T02:54:26;4.47;;;2.00;;
70312;SDS011;57723;51.698;5.344;2024-01-15T02:56:51;4.27;;;1.90;;
70312;SDS011;57723;51.698;5.344;2024-01-15T02:59:17;3.30;;;1.80;;
70312;SDS011;57723;51.698;5.344;2024-01-15T03:01:42;3.83;;;1.87;;
70312;SDS011;57723;51.698;5.344;2024-01-15T03:04:07;3.00;;;1.60;;
70312;SDS011;57723;51.698;5.344;2024-01-15T03:06:33;4.67;;;2.10;;
70312;SDS011;57723;51.698;5.344;2024-01-15T03:09:02;3.58;;;1.98;;
70312;SDS011;57723;51.698;5.344;2024-01-15T03:11:28;2.92;;;1.75;;
70312;SDS011;57723;51.698;5.344;2024-01-15T03:13:53;2.93;;;1.70;;
70312;SDS011;57723;51.698;5.344;2024-01-15T03:16:19;3.03;;;1.80;;
70312;SDS011;57723;51.698;5.344;2024-01-15T03:18:45;3.70;;;1.73;;
70312;SDS011;57723;51.698;5.344;2024-01-15T03:21:11;3.13;;;1.77;;
70312;SDS011;57723;51.698;5.344;2024-01-15T03:23:36;4.17;;;1.50;;
70312;SDS011;57723;51.698;5.344;2024-01-15T03:26:02;3.63;;;1.47;;
70312;SDS011;57723;51.698;5.344;2024-01-15T03:28:30;3.63;;;1.67;;
70312;SDS011;57723;51.698;5.344;2024-01-15T03:30:57;3.50;;;1.50;;
70312;SDS011;57723;51.698;5.344;2024-01-15T03:33:23;2.57;;;1.43;;
70312;SDS011;57723;51.698;5.344;2024-01-15T03:35:48;2.77;;;1.70;;
70312;SDS011;57723;51.698;5.344;2024-01-15T03:38:13;3.33;;;1.50;;
70312;SDS011;57723;51.698;5.344;2024-01-15T03:40:39;3.33;;;1.50;;
70312;SDS011;57723;51.698;5.344;2024-01-15T03:43:04;4.32;;;1.60;;
70312;SDS011;57723;51.698;5.344;2024-01-15T03:45:32;3.38;;;1.70;;
70312;SDS011;57723;51.698;5.344;2024-01-15T03:48:00;2.87;;;1.47;;
70312;SDS011;57723;51.698;5.344;2024-01-15T03:50:25;4.20;;;1.58;;
70312;SDS011;57723;51.698;5.344;2024-01-15T03:52:51;2.45;;;1.38;;
70312;SDS011;57723;51.698;5.344;2024-01-15T03:55:16;2.67;;;1.37;;
70312;SDS011;57723;51.698;5.344;2024-01-15T03:57:45;3.15;;;1.50;;
70312;SDS011;57723;51.698;5.344;2024-01-15T04:00:10;3.27;;;1.30;;
70312;SDS011;57723;51.698;5.344;2024-01-15T04:02:37;3.97;;;1.40;;
70312;SDS011;57723;51.698;5.344;2024-01-15T04:05:03;3.40;;;1.60;;
70312;SDS011;57723;51.698;5.344;2024-01-15T04:07:28;2.83;;;1.50;;
70312;SDS011;57723;51.698;5.344;2024-01-15T04:09:53;3.73;;;1.73;;
70312;SDS011;57723;51.698;5.344;2024-01-15T04:12:19;2.47;;;1.43;;
70312;SDS011;57723;51.698;5.344;2024-01-15T04:14:44;4.53;;;1.50;;
70312;SDS011;57723;51.698;5.344;2024-01-15T04:17:09;2.10;;;1.20;;
70312;SDS011;57723;51.698;5.344;2024-01-15T04:19:34;2.28;;;1.20;;
70312;SDS011;57723;51.698;5.344;2024-01-15T04:22:00;2.47;;;1.30;;
70312;SDS011;57723;51.698;5.344;2024-01-15T04:24:25;3.20;;;1.30;;
70312;SDS011;57723;51.698;5.344;2024-01-15T04:26:51;2.78;;;1.30;;
70312;SDS011;57723;51.698;5.344;2024-01-15T04:29:17;2.80;;;1.30;;
70312;SDS011;57723;51.698;5.344;2024-01-15T04:31:44;2.50;;;1.38;;
70312;SDS011;57723;51.698;5.344;2024-01-15T04:34:17;5.07;;;1.40;;
70312;SDS011;57723;51.698;5.344;2024-01-15T04:36:42;1.80;;;1.00;;
70312;SDS011;57723;51.698;5.344;2024-01-15T04:39:08;2.87;;;1.30;;
70312;SDS011;57723;51.698;5.344;2024-01-15T04:41:34;2.90;;;1.20;;
70312;SDS011;57723;51.698;5.344;2024-01-15T04:43:59;6.10;;;1.93;;
70312;SDS011;57723;51.698;5.344;2024-01-15T04:46:26;3.78;;;1.02;;
70312;SDS011;57723;51.698;5.344;2024-01-15T04:48:55;2.73;;;1.10;;
70312;SDS011;57723;51.698;5.344;2024-01-15T04:51:20;2.58;;;1.10;;
70312;SDS011;57723;51.698;5.344;2024-01-15T04:53:45;3.17;;;1.20;;
70312;SDS011;57723;51.698;5.344;2024-01-15T04:56:11;1.87;;;1.03;;
70312;SDS011;57723;51.698;5.344;2024-01-15T04:58:36;2.20;;;1.23;;
70312;SDS011;57723;51.698;5.344;2024-01-15T05:01:01;3.72;;;1.42;;
70312;SDS011;57723;51.698;5.344;2024-01-15T05:03:29;2.73;;;1.10;;
70312;SDS011;57723;51.698;5.344;2024-01-15T05:05:55;2.53;;;1.00;;
70312;SDS011;57723;51.698;5.344;2024-01-15T05:08:20;2.95;;;1.02;;
70312;SDS011;57723;51.698;5.344;2024-01-15T05:10:46;1.83;;;1.10;;
70312;SDS011;57723;51.698;5.344;2024-01-15T05:13:12;3.22;;;1.20;;
70312;SDS011;57723;51.698;5.344;2024-01-15T05:15:37;1.57;;;1.00;;
70312;SDS011;57723;51.698;5.344;2024-01-15T05:18:02;3.40;;;1.20;;
70312;SDS011;57723;51.698;5.344;2024-01-15T05:20:29;2.63;;;1.10;;
70312;SDS011;57723;51.698;5.344;2024-01-15T05:23:01;2.83;;;1.23;;
70312;SDS011;57723;51.698;5.344;2024-01-15T05:25:26;2.50;;;1.00;;
70312;SDS011;57723;51.698;5.344;2024-01-15T05:27:51;2.50;;;1.00;;
70312;SDS011;57723;51.698;5.344;2024-01-15T05:30:17;2.20;;;1.00;;
70312;SDS011;57723;51.698;5.344;2024-01-15T05:32:43;3.13;;;1.20;;
70312;SDS011;57723;51.698;5.344;2024-01-15T05:35:08;1.80;;;1.00;;
70312;SDS011;57723;51.698;5.344;2024-01-15T05:37:34;2.50;;;1.05;;
70312;SDS011;57723;51.698;5.344;2024-01-15T05:40:00;2.17;;;1.00;;
70312;SDS011;57723;51.698;5.344;2024-01-15T05:42:25;7.33;;;1.03;;
70312;SDS011;57723;51.698;5.344;2024-01-15T05:44:51;2.20;;;0.90;;
70312;SDS011;57723;51.698;5.344;2024-01-15T05:47:17;2.47;;;0.90;;
70312;SDS011;57723;51.698;5.344;2024-01-15T05:49:42;2.35;;;0.98;;
70312;SDS011;57723;51.698;5.344;2024-01-15T05:52:10;2.60;;;0.90;;
70312;SDS011;57723;51.698;5.344;2024-01-15T05:54:36;2.50;;;1.00;;
70312;SDS011;57723;51.698;5.344;2024-01-15T05:57:01;1.97;;;0.97;;
70312;SDS011;57723;51.698;5.344;2024-01-15T05:59:26;1.63;;;1.00;;
70312;SDS011;57723;51.698;5.344;2024-01-15T06:01:59;2.20;;;1.00;;
70312;SDS011;57723;51.698;5.344;2024-01-15T06:04:24;2.00;;;0.73;;
70312;SDS011;57723;51.698;5.344;2024-01-15T06:06:50;1.33;;;0.70;;
70312;SDS011;57723;51.698;5.344;2024-01-15T06:09:16;1.50;;;0.85;;
70312;SDS011;57723;51.698;5.344;2024-01-15T06:11:41;1.73;;;1.00;;
70312;SDS011;57723;51.698;5.344;2024-01-15T06:14:08;3.28;;;1.15;;
70312;SDS011;57723;51.698;5.344;2024-01-15T06:16:33;2.30;;;1.27;;
70312;SDS011;57723;51.698;5.344;2024-01-15T06:18:59;2.15;;;1.50;;
70312;SDS011;57723;51.698;5.344;2024-01-15T06:21:24;5.28;;;2.03;;
70312;SDS011;57723;51.698;5.344;2024-01-15T06:23:50;3.03;;;1.70;;
70312;SDS011;57723;51.698;5.344;2024-01-15T06:26:20;2.50;;;1.63;;
70312;SDS011;57723;51.698;5.344;2024-01-15T06:28:45;2.30;;;1.80;;
70312;SDS011;57723;51.698;5.344;2024-01-15T06:31:10;2.15;;;1.63;;
70312;SDS011;57723;51.698;5.344;2024-01-15T06:33:36;6.53;;;1.80;;
70312;SDS011;57723;51.698;5.344;2024-01-15T06:36:01;7.40;;;0.93;;
70312;SDS011;57723;51.698;5.344;2024-01-15T06:38:27;6.28;;;1.00;;
70312;SDS011;57723;51.698;5.344;2024-01-15T06:40:52;2.42;;;0.80;;
70312;SDS011;57723;51.698;5.344;2024-01-15T06:43:18;3.53;;;0.83;;
70312;SDS011;57723;51.698;5.344;2024-01-15T06:45:44;1.50;;;0.80;;
70312;SDS011;57723;51.698;5.344;2024-01-15T06:48:10;2.38;;;0.77;;
70312;SDS011;57723;51.698;5.344;2024-01-15T06:50:39;3.70;;;0.70;;
70312;SDS011;57723;51.698;5.344;2024-01-15T06:53:04;2.70;;;0.60;;
70312;SDS011;57723;51.698;5.344;2024-01-15T06:55:29;1.90;;;0.70;;
70312;SDS011;57723;51.698;5.344;2024-01-15T06:57:55;1.48;;;0.60;;
70312;SDS011;57723;51.698;5.344;2024-01-15T07:00:20;2.10;;;0.60;;
70312;SDS011;57723;51.698;5.344;2024-01-15T07:02:46;2.37;;;0.80;;
70312;SDS011;57723;51.698;5.344;2024-01-15T07:05:11;3.60;;;0.80;;
70312;SDS011;57723;51.698;5.344;2024-01-15T07:07:37;2.90;;;1.30;;
70312;SDS011;57723;51.698;5.344;2024-01-15T07:10:02;2.80;;;0.70;;
70312;SDS011;57723;51.698;5.344;2024-01-15T07:12:28;5.95;;;0.80;;
70312;SDS011;57723;51.698;5.344;2024-01-15T07:14:54;2.53;;;0.70;;
70312;SDS011;57723;51.698;5.344;2024-01-15T07:17:20;3.23;;;0.67;;
70312;SDS011;57723;51.698;5.344;2024-01-15T07:19:45;1.70;;;0.63;;
70312;SDS011;57723;51.698;5.344;2024-01-15T07:22:13;1.73;;;0.70;;
70312;SDS011;57723;51.698;5.344;2024-01-15T07:24:42;2.20;;;0.60;;
70312;SDS011;57723;51.698;5.344;2024-01-15T07:27:08;1.67;;;0.80;;
70312;SDS011;57723;51.698;5.344;2024-01-15T07:29:34;1.83;;;0.60;;
70312;SDS011;57723;51.698;5.344;2024-01-15T07:32:01;3.00;;;0.70;;
70312;SDS011;57723;51.698;5.344;2024-01-15T07:34:27;3.42;;;0.70;;
70312;SDS011;57723;51.698;5.344;2024-01-15T07:36:52;1.67;;;0.70;;
70312;SDS011;57723;51.698;5.344;2024-01-15T07:39:17;1.70;;;0.70;;
70312;SDS011;57723;51.698;5.344;2024-01-15T07:41:43;4.07;;;0.80;;
70312;SDS011;57723;51.698;5.344;2024-01-15T07:44:09;1.10;;;0.67;;
70312;SDS011;57723;51.698;5.344;2024-01-15T07:46:34;1.77;;;0.80;;
70312;SDS011;57723;51.698;5.344;2024-01-15T07:48:59;1.53;;;0.70;;
70312;SDS011;57723;51.698;5.344;2024-01-15T07:51:24;1.87;;;0.80;;
70312;SDS011;57723;51.698;5.344;2024-01-15T07:53:50;2.88;;;0.77;;
70312;SDS011;57723;51.698;5.344;2024-01-15T07:56:16;1.83;;;0.70;;
70312;SDS011;57723;51.698;5.344;2024-01-15T07:58:42;2.35;;;0.90;;
70312;SDS011;57723;51.698;5.344;2024-01-15T08:01:07;1.53;;;0.70;;
70312;SDS011;57723;51.698;5.344;2024-01-15T08:03:32;2.03;;;0.73;;
70312;SDS011;57723;51.698;5.344;2024-01-15T08:05:58;1.77;;;0.70;;
70312;SDS011;57723;51.698;5.344;2024-01-15T08:08:24;1.77;;;0.67;;
70312;SDS011;57723;51.698;5.344;2024-01-15T08:10:53;1.48;;;0.60;;
70312;SDS011;57723;51.698;5.344;2024-01-15T08:13:18;1.95;;;0.73;;
70312;SDS011;57723;51.698;5.344;2024-01-15T08:15:45;1.40;;;0.70;;
70312;SDS011;57723;51.698;5.344;2024-01-15T08:18:10;4.78;;;0.73;;
70312;SDS011;57723;51.698;5.344;2024-01-15T08:20:36;2.80;;;0.80;;
70312;SDS011;57723;51.698;5.344;2024-01-15T08:23:06;2.13;;;0.80;;
70312;SDS011;57723;51.698;5.344;2024-01-15T08:25:34;1.80;;;0.73;;
70312;SDS011;57723;51.698;5.344;2024-01-15T08:28:00;2.22;;;1.15;;
70312;SDS011;57723;51.698;5.344;2024-01-15T08:30:26;1.52;;;0.68;;
70312;SDS011;57723;51.698;5.344;2024-01-15T08:32:55;2.80;;;0.75;;
70312;SDS011;57723;51.698;5.344;2024-01-15T08:35:21;2.92;;;0.80;;
70312;SDS011;57723;51.698;5.344;2024-01-15T08:37:48;4.78;;;0.80;;
70312;SDS011;57723;51.698;5.344;2024-01-15T08:40:14;2.17;;;0.70;;
70312;SDS011;57723;51.698;5.344;2024-01-15T08:42:43;10.10;;;1.10;;
70312;SDS011;57723;51.698;5.344;2024-01-15T08:45:09;10.65;;;1.15;;
70312;SDS011;57723;51.698;5.344;2024-01-15T08:47:34;6.10;;;1.08;;
70312;SDS011;57723;51.698;5.344;2024-01-15T08:50:00;11.60;;;0.90;;
70312;SDS011;57723;51.698;5.344;2024-01-15T08:52:25;2.83;;;0.60;;
70312;SDS011;57723;51.698;5.344;2024-01-15T08:54:51;1.65;;;0.70;;
70312;SDS011;57723;51.698;5.344;2024-01-15T08:57:16;5.13;;;0.60;;
70312;SDS011;57723;51.698;5.344;2024-01-15T08:59:42;2.15;;;0.80;;
70312;SDS011;57723;51.698;5.344;2024-01-15T09:02:08;1.30;;;0.63;;
70312;SDS011;57723;51.698;5.344;2024-01-15T09:04:33;5.13;;;0.70;;
70312;SDS011;57723;51.698;5.344;2024-01-15T09:06:58;1.73;;;0.67;;
70312;SDS011;57723;51.698;5.344;2024-01-15T09:09:30;2.22;;;0.68;;
70312;SDS011;57723;51.698;5.344;2024-01-15T09:11:55;2.25;;;0.70;;
70312;SDS011;57723;51.698;5.344;2024-01-15T09:14:21;4.07;;;1.27;;
70312;SDS011;57723;51.698;5.344;2024-01-15T09:16:47;2.38;;;0.80;;
70312;SDS011;57723;51.698;5.344;2024-01-15T09:19:12;1.60;;;0.50;;
70312;SDS011;57723;51.698;5.344;2024-01-15T09:21:38;0.93;;;0.50;;
70312;SDS011;57723;51.698;5.344;2024-01-15T09:24:04;1.75;;;0.68;;
70312;SDS011;57723;51.698;5.344;2024-01-15T09:26:29;1.60;;;0.80;;
70312;SDS011;57723;51.698;5.344;2024-01-15T09:28:57;3.42;;;0.77;;
70312;SDS011;57723;51.698;5.344;2024-01-15T09:31:25;1.13;;;0.60;;
70312;SDS011;57723;51.698;5.344;2024-01-15T09:33:50;1.23;;;0.50;;
70312;SDS011;57723;51.698;5.344;2024-01-15T09:39:27;0.80;;;0.40;;
70312;SDS011;57723;51.698;5.344;2024-01-15T09:41:53;3.03;;;0.60;;
70312;SDS011;57723;51.698;5.344;2024-01-15T09:44:18;3.53;;;0.60;;
70312;SDS011;57723;51.698;5.344;2024-01-15T09:46:44;5.57;;;0.70;;
70312;SDS011;57723;51.698;5.344;2024-01-15T09:49:10;3.67;;;0.70;;
70312;SDS011;57723;51.698;5.344;2024-01-15T09:51:35;3.63;;;0.63;;
70312;SDS011;57723;51.698;5.344;2024-01-15T09:54:01;2.63;;;0.88;;
70312;SDS011;57723;51.698;5.344;2024-01-15T09:56:27;2.93;;;0.60;;
70312;SDS011;57723;51.698;5.344;2024-01-15T09:58:52;1.10;;;0.60;;
70312;SDS011;57723;51.698;5.344;2024-01-15T10:01:21;1.77;;;0.70;;
70312;SDS011;57723;51.698;5.344;2024-01-15T10:03:47;2.55;;;0.70;;
70312;SDS011;57723;51.698;5.344;2024-01-15T10:06:16;3.47;;;0.70;;
70312;SDS011;57723;51.698;5.344;2024-01-15T10:08:42;2.05;;;0.60;;
70312;SDS011;57723;51.698;5.344;2024-01-15T10:11:11;1.70;;;0.60;;
70312;SDS011;57723;51.698;5.344;2024-01-15T10:13:36;3.03;;;0.70;;
70312;SDS011;57723;51.698;5.344;2024-01-15T10:16:02;1.33;;;0.70;;
70312;SDS011;57723;51.698;5.344;2024-01-15T10:18:29;2.15;;;0.60;;
70312;SDS011;57723;51.698;5.344;2024-01-15T10:20:54;1.25;;;0.60;;
70312;SDS011;57723;51.698;5.344;2024-01-15T10:23:22;2.83;;;0.80;;
70312;SDS011;57723;51.698;5.344;2024-01-15T10:25:49;1.48;;;0.73;;
70312;SDS011;57723;51.698;5.344;2024-01-15T10:28:16;1.63;;;0.60;;
70312;SDS011;57723;51.698;5.344;2024-01-15T10:30:42;0.70;;;0.50;;
70312;SDS011;57723;51.698;5.344;2024-01-15T10:33:07;0.93;;;0.50;;
70312;SDS011;57723;51.698;5.344;2024-01-15T10:35:35;1.07;;;0.60;;
70312;SDS011;57723;51.698;5.344;2024-01-15T10:38:01;1.55;;;0.80;;
70312;SDS011;57723;51.698;5.344;2024-01-15T10:40:28;1.80;;;0.52;;
70312;SDS011;57723;51.698;5.344;2024-01-15T10:42:53;0.95;;;0.50;;
70312;SDS011;57723;51.698;5.344;2024-01-15T10:45:19;2.58;;;0.65;;
70312;SDS011;57723;51.698;5.344;2024-01-15T10:47:44;1.73;;;0.60;;
70312;SDS011;57723;51.698;5.344;2024-01-15T10:50:14;1.40;;;0.60;;
70312;SDS011;57723;51.698;5.344;2024-01-15T10:52:40;1.42;;;0.50;;
70312;SDS011;57723;51.698;5.344;2024-01-15T10:55:09;1.25;;;0.60;;
70312;SDS011;57723;51.698;5.344;2024-01-15T10:57:38;1.77;;;0.50;;
70312;SDS011;57723;51.698;5.344;2024-01-15T11:00:06;1.15;;;0.52;;
70312;SDS011;57723;51.698;5.344;2024-01-15T11:02:37;2.53;;;0.60;;
70312;SDS011;57723;51.698;5.344;2024-01-15T11:05:03;1.77;;;0.70;;
70312;SDS011;57723;51.698;5.344;2024-01-15T11:07:30;0.90;;;0.60;;
70312;SDS011;57723;51.698;5.344;2024-01-15T11:09:55;2.43;;;0.60;;
70312;SDS011;57723;51.698;5.344;2024-01-15T11:12:20;1.23;;;0.60;;
70312;SDS011;57723;51.698;5.344;2024-01-15T11:14:51;5.10;;;1.10;;
70312;SDS011;57723;51.698;5.344;2024-01-15T11:17:19;1.40;;;0.50;;
70312;SDS011;57723;51.698;5.344;2024-01-15T11:19:46;1.40;;;0.50;;
70312;SDS011;57723;51.698;5.344;2024-01-15T11:22:54;1.20;;;0.50;;
70312;SDS011;57723;51.698;5.344;2024-01-15T11:25:06;1.35;;;0.50;;
70312;SDS011;57723;51.698;5.344;2024-01-15T11:27:44;1.70;;;0.63;;
70312;SDS011;57723;51.698;5.344;2024-01-15T11:30:12;1.20;;;0.55;;
70312;SDS011;57723;51.698;5.344;2024-01-15T11:32:40;1.03;;;0.50;;
70312;SDS011;57723;51.698;5.344;2024-01-15T11:35:12;1.02;;;0.50;;
70312;SDS011;57723;51.698;5.344;2024-01-15T11:40:19;2.60;;;0.60;;
70312;SDS011;57723;51.698;5.344;2024-01-15T11:42:45;1.10;;;0.50;;
70312;SDS011;57723;51.698;5.344;2024-01-15T11:45:11;0.40;;;0.38;;
70312;SDS011;57723;51.698;5.344;2024-01-15T11:50:21;1.88;;;0.60;;
70312;SDS011;57723;51.698;5.344;2024-01-15T11:52:59;2.85;;;0.77;;
70312;SDS011;57723;51.698;5.344;2024-01-15T11:55:36;1.17;;;0.50;;
70312;SDS011;57723;51.698;5.344;2024-01-15T11:58:02;2.20;;;0.50;;
70312;SDS011;57723;51.698;5.344;2024-01-15T12:00:30;1.50;;;1.05;;
70312;SDS011;57723;51.698;5.344;2024-01-15T12:02:58;1.10;;;0.60;;
70312;SDS011;57723;51.698;5.344;2024-01-15T12:05:23;0.57;;;0.40;;
70312;SDS011;57723;51.698;5.344;2024-01-15T12:07:49;1.10;;;0.50;;
70312;SDS011;57723;51.698;5.344;2024-01-15T12:10:18;1.23;;;0.52;;
70312;SDS011;57723;51.698;5.344;2024-01-15T12:15:21;1.60;;;0.60;;
70312;SDS011;57723;51.698;5.344;2024-01-15T12:17:47;0.95;;;0.57;;
70312;SDS011;57723;51.698;5.344;2024-01-15T12:20:13;1.00;;;0.50;;
70312;SDS011;57723;51.698;5.344;2024-01-15T12:22:38;1.43;;;0.50;;
70312;SDS011;57723;51.698;5.344;2024-01-15T12:25:04;2.00;;;0.57;;
70312;SDS011;57723;51.698;5.344;2024-01-15T12:27:30;0.80;;;0.50;;
70312;SDS011;57723;51.698;5.344;2024-01-15T12:29:55;0.70;;;0.50;;
70312;SDS011;57723;51.698;5.344;2024-01-15T12:32:21;1.30;;;0.57;;
70312;SDS011;57723;51.698;5.344;2024-01-15T12:34:49;0.95;;;0.50;;
70312;SDS011;57723;51.698;5.344;2024-01-15T12:37:15;1.30;;;0.50;;
70312;SDS011;57723;51.698;5.344;2024-01-15T12:39:43;1.15;;;0.60;;
70312;SDS011;57723;51.698;5.344;2024-01-15T12:42:09;3.38;;;0.50;;
70312;SDS011;57723;51.698;5.344;2024-01-15T12:44:35;2.90;;;0.60;;
70312;SDS011;57723;51.698;5.344;2024-01-15T12:47:04;0.90;;;0.50;;
70312;SDS011;57723;51.698;5.344;2024-01-15T12:49:32;0.88;;;0.50;;
70312;SDS011;57723;51.698;5.344;2024-01-15T12:52:00;0.75;;;0.50;;
70312;SDS011;57723;51.698;5.344;2024-01-15T12:54:26;1.60;;;0.50;;
70312;SDS011;57723;51.698;5.344;2024-01-15T12:56:51;0.93;;;0.40;;
70312;SDS011;57723;51.698;5.344;2024-01-15T12:59:17;0.80;;;0.50;;
70312;SDS011;57723;51.698;5.344;2024-01-15T13:01:43;0.43;;;0.30;;
70312;SDS011;57723;51.698;5.344;2024-01-15T13:04:09;0.95;;;0.60;;
70312;SDS011;57723;51.698;5.344;2024-01-15T13:06:35;1.43;;;0.50;;
70312;SDS011;57723;51.698;5.344;2024-01-15T13:09:00;1.77;;;0.70;;
70312;SDS011;57723;51.698;5.344;2024-01-15T13:11:26;0.97;;;0.40;;
70312;SDS011;57723;51.698;5.344;2024-01-15T13:13:58;2.35;;;0.45;;
70312;SDS011;57723;51.698;5.344;2024-01-15T13:16:23;1.13;;;0.50;;
70312;SDS011;57723;51.698;5.344;2024-01-15T13:18:52;2.05;;;0.60;;
70312;SDS011;57723;51.698;5.344;2024-01-15T13:21:17;0.73;;;0.47;;
70312;SDS011;57723;51.698;5.344;2024-01-15T13:23:42;1.70;;;0.40;;
70312;SDS011;57723;51.698;5.344;2024-01-15T13:26:08;1.00;;;0.50;;
70312;SDS011;57723;51.698;5.344;2024-01-15T13:28:33;1.00;;;0.53;;
70312;SDS011;57723;51.698;5.344;2024-01-15T13:30:59;1.25;;;0.40;;
70312;SDS011;57723;51.698;5.344;2024-01-15T13:33:24;1.50;;;0.50;;
70312;SDS011;57723;51.698;5.344;2024-01-15T13:35:53;2.58;;;0.50;;
70312;SDS011;57723;51.698;5.344;2024-01-15T13:38:18;0.82;;;0.40;;
70312;SDS011;57723;51.698;5.344;2024-01-15T13:40:44;0.73;;;0.40;;
70312;SDS011;57723;51.698;5.344;2024-01-15T13:43:12;0.93;;;0.43;;
70312;SDS011;57723;51.698;5.344;2024-01-15T13:45:39;1.00;;;0.50;;
70312;SDS011;57723;51.698;5.344;2024-01-15T13:48:04;1.20;;;0.80;;
70312;SDS011;57723;51.698;5.344;2024-01-15T13:50:33;1.17;;;0.50;;
70312;SDS011;57723;51.698;5.344;2024-01-15T13:52:59;2.55;;;0.50;;
70312;SDS011;57723;51.698;5.344;2024-01-15T13:55:25;2.07;;;0.40;;
70312;SDS011;57723;51.698;5.344;2024-01-15T13:57:50;0.73;;;0.50;;
70312;SDS011;57723;51.698;5.344;2024-01-15T14:00:16;0.93;;;0.50;;
70312;SDS011;57723;51.698;5.344;2024-01-15T14:02:44;1.15;;;0.47;;
70312;SDS011;57723;51.698;5.344;2024-01-15T14:05:09;1.75;;;0.47;;
70312;SDS011;57723;51.698;5.344;2024-01-15T14:07:37;1.87;;;0.50;;
70312;SDS011;57723;51.698;5.344;2024-01-15T14:10:03;0.73;;;0.40;;
70312;SDS011;57723;51.698;5.344;2024-01-15T14:12:29;1.23;;;0.40;;
70312;SDS011;57723;51.698;5.344;2024-01-15T14:14:54;1.17;;;0.50;;
70312;SDS011;57723;51.698;5.344;2024-01-15T14:17:19;0.30;;;0.30;;
70312;SDS011;57723;51.698;5.344;2024-01-15T14:19:44;1.43;;;0.50;;
70312;SDS011;57723;51.698;5.344;2024-01-15T14:22:10;0.93;;;0.57;;
70312;SDS011;57723;51.698;5.344;2024-01-15T14:24:35;1.50;;;0.50;;
70312;SDS011;57723;51.698;5.344;2024-01-15T14:27:01;1.00;;;0.50;;
70312;SDS011;57723;51.698;5.344;2024-01-15T14:29:27;1.10;;;0.50;;
70312;SDS011;57723;51.698;5.344;2024-01-15T14:31:52;0.83;;;0.50;;
70312;SDS011;57723;51.698;5.344;2024-01-15T14:34:18;0.63;;;0.40;;
70312;SDS011;57723;51.698;5.344;2024-01-15T14:36:43;0.73;;;0.40;;
70312;SDS011;57723;51.698;5.344;2024-01-15T14:39:12;1.75;;;0.52;;
70312;SDS011;57723;51.698;5.344;2024-01-15T14:41:37;2.07;;;0.43;;
70312;SDS011;57723;51.698;5.344;2024-01-15T14:44:03;1.00;;;0.50;;
70312;SDS011;57723;51.698;5.344;2024-01-15T14:46:31;1.05;;;0.52;;
70312;SDS011;57723;51.698;5.344;2024-01-15T14:48:57;0.57;;;0.50;;
70312;SDS011;57723;51.698;5.344;2024-01-15T14:51:22;3.07;;;0.40;;
70312;SDS011;57723;51.698;5.344;2024-01-15T14:53:47;2.97;;;0.60;;
70312;SDS011;57723;51.698;5.344;2024-01-15T14:56:13;1.90;;;0.50;;